createdAt,value
2019-01-19T00:00:22.772Z,99.90
2019-01-19T00:03:06.650Z,99.90
2019-01-19T00:05:53.411Z,99.90
2019-01-19T00:08:27.956Z,99.90
2019-01-19T00:11:05.334Z,99.90
2019-01-19T00:13:39.852Z,99.90
2019-01-19T00:16:17.383Z,99.90
2019-01-19T00:19:05.998Z,99.90
2019-01-19T00:21:52.775Z,99.90
2019-01-19T00:24:27.535Z,99.90
2019-01-19T00:27:17.513Z,99.90
2019-01-19T00:30:10.576Z,99.90
2019-01-19T00:33:12.817Z,99.90
2019-01-19T00:36:03.987Z,99.90
2019-01-19T00:39:09.144Z,99.90
2019-01-19T00:41:40.896Z,99.90
2019-01-19T00:44:15.536Z,99.90
2019-01-19T00:46:53.264Z,99.90
2019-01-19T00:49:22.121Z,99.90
2019-01-19T00:52:27.585Z,99.90
2019-01-19T00:55:05.027Z,99.90
2019-01-19T00:57:54.440Z,99.50
2019-01-19T01:00:26.201Z,99.40
2019-01-19T01:03:01.032Z,99.30
2019-01-19T01:05:32.893Z,99.40
2019-01-19T01:08:04.694Z,99.60
2019-01-19T01:10:39.431Z,99.80
2019-01-19T01:13:19.938Z,99.90
2019-01-19T01:15:54.853Z,99.90
2019-01-19T01:18:44.660Z,99.90
2019-01-19T01:21:31.744Z,99.90
2019-01-19T01:24:08.823Z,99.90
2019-01-19T01:27:01.891Z,99.90
2019-01-19T01:30:07.083Z,99.90
2019-01-19T01:32:41.536Z,99.90
2019-01-19T01:35:19.087Z,99.90
2019-01-19T01:37:50.846Z,99.90
2019-01-19T01:40:48.068Z,99.90
2019-01-19T01:43:42.661Z,99.70
2019-01-19T01:46:17.774Z,99.00
2019-01-19T01:48:55.565Z,98.90
2019-01-19T01:51:27.270Z,98.80
2019-01-19T01:54:17.013Z,98.40
2019-01-19T01:56:45.459Z,98.30
2019-01-19T01:59:17.295Z,98.20
2019-01-19T02:01:52.028Z,98.40
2019-01-19T02:04:26.575Z,97.60
2019-01-19T02:07:04.152Z,97.50
2019-01-19T02:09:36.062Z,97.50
2019-01-19T02:12:08.700Z,97.40
2019-01-19T02:14:46.475Z,97.30
2019-01-19T02:17:42.471Z,97.40
2019-01-19T02:20:44.368Z,97.00
2019-01-19T02:23:28.413Z,97.00
2019-01-19T02:26:16.999Z,96.70
2019-01-19T02:28:54.904Z,96.40
2019-01-19T02:31:29.314Z,96.30
2019-01-19T02:34:19.242Z,96.30
2019-01-19T02:36:56.879Z,96.30
2019-01-19T02:39:48.414Z,96.00
2019-01-19T02:42:36.967Z,96.10
2019-01-19T02:45:20.660Z,96.10
2019-01-19T02:48:04.771Z,95.70
2019-01-19T02:50:48.486Z,95.60
2019-01-19T02:53:23.134Z,95.70
2019-01-19T02:56:01.195Z,95.60
2019-01-19T02:58:32.960Z,95.20
2019-01-19T03:01:33.888Z,95.00
2019-01-19T03:04:31.605Z,95.10
2019-01-19T03:07:23.022Z,95.00
2019-01-19T03:10:07.143Z,95.20
2019-01-19T03:12:57.278Z,95.40
2019-01-19T03:15:53.244Z,95.60
2019-01-19T03:18:27.936Z,95.50
2019-01-19T03:21:31.879Z,95.60
2019-01-19T03:24:09.649Z,95.80
2019-01-19T03:26:56.508Z,95.70
2019-01-19T03:29:30.947Z,95.60
2019-01-19T03:32:20.836Z,95.60
2019-01-19T03:35:10.624Z,95.90
2019-01-19T03:37:57.158Z,95.90
2019-01-19T03:40:46.937Z,95.90
2019-01-19T03:43:24.370Z,96.00
2019-01-19T03:46:08.821Z,96.10
2019-01-19T03:49:11.237Z,96.20
2019-01-19T03:51:46.199Z,96.20
2019-01-19T03:54:26.878Z,96.20
2019-01-19T03:57:07.579Z,96.40
2019-01-19T03:59:57.297Z,96.50
2019-01-19T04:02:52.598Z,96.50
2019-01-19T04:05:24.343Z,96.30
2019-01-19T04:07:56.233Z,96.10
2019-01-19T04:10:31.087Z,96.50
2019-01-19T04:13:24.184Z,96.20
2019-01-19T04:15:55.920Z,96.60
2019-01-19T04:18:39.371Z,96.20
2019-01-19T04:21:13.935Z,96.30
2019-01-19T04:23:45.930Z,96.40
2019-01-19T04:26:16.200Z,96.20
2019-01-19T04:28:45.014Z,96.40
2019-01-19T04:31:13.650Z,96.40
2019-01-19T04:33:42.178Z,96.20
2019-01-19T04:36:11.525Z,96.30
2019-01-19T04:38:41.503Z,96.00
2019-01-19T04:41:10.099Z,96.10
2019-01-19T04:43:38.536Z,96.10
2019-01-19T04:46:07.263Z,96.10
2019-01-19T04:48:36.120Z,96.00
2019-01-19T04:51:04.538Z,96.00
2019-01-19T04:53:33.061Z,96.00
2019-01-19T04:56:01.567Z,96.10
2019-01-19T04:58:30.134Z,96.20
2019-01-19T05:00:58.721Z,96.20
2019-01-19T05:03:27.282Z,96.20
2019-01-19T05:05:55.955Z,96.20
2019-01-19T05:08:24.626Z,96.20
2019-01-19T05:10:53.205Z,96.30
2019-01-19T05:13:21.694Z,96.20
2019-01-19T05:15:50.201Z,96.30
2019-01-19T05:18:19.019Z,96.30
2019-01-19T05:20:47.593Z,96.40
2019-01-19T05:23:16.152Z,96.50
2019-01-19T05:25:44.733Z,96.60
2019-01-19T05:28:13.263Z,96.70
2019-01-19T05:30:41.778Z,96.80
2019-01-19T05:33:10.208Z,97.00
2019-01-19T05:35:38.820Z,97.20
2019-01-19T05:38:07.350Z,97.60
2019-01-19T05:40:36.007Z,97.80
2019-01-19T05:43:04.563Z,98.40
2019-01-19T05:45:33.104Z,98.50
2019-01-19T05:48:01.771Z,99.00
2019-01-19T05:50:30.312Z,99.40
2019-01-19T05:52:58.845Z,99.30
2019-01-19T05:55:27.314Z,99.40
2019-01-19T05:57:55.898Z,99.70
2019-01-19T06:00:26.720Z,99.90
2019-01-19T06:02:55.204Z,99.90
2019-01-19T06:05:23.736Z,99.90
2019-01-19T06:07:52.661Z,99.90
2019-01-19T06:10:21.411Z,99.90
2019-01-19T06:12:50.061Z,99.90
2019-01-19T06:15:18.723Z,99.90
2019-01-19T06:17:47.165Z,99.90
2019-01-19T06:20:18.725Z,99.90
2019-01-19T06:22:47.281Z,99.90
2019-01-19T06:25:16.113Z,99.90
2019-01-19T06:27:44.581Z,99.90
2019-01-19T06:30:16.167Z,99.90
2019-01-19T06:32:44.890Z,99.90
2019-01-19T06:35:13.715Z,99.90
2019-01-19T06:37:42.246Z,99.90
2019-01-19T06:40:18.219Z,99.90
2019-01-19T06:42:46.865Z,99.90
2019-01-19T06:45:17.763Z,99.90
2019-01-19T06:47:46.280Z,99.90
2019-01-19T06:50:16.631Z,99.90
2019-01-19T06:52:45.219Z,99.90
2019-01-19T06:55:16.348Z,99.90
2019-01-19T06:57:44.947Z,99.90
2019-01-19T07:00:16.137Z,99.90
2019-01-19T07:02:44.663Z,99.90
2019-01-19T07:05:13.648Z,99.90
2019-01-19T07:07:42.159Z,99.90
2019-01-19T07:10:15.837Z,99.90
2019-01-19T07:12:44.355Z,99.90
2019-01-19T07:15:13.864Z,99.90
2019-01-19T07:17:42.345Z,99.90
2019-01-19T07:20:13.642Z,99.90
2019-01-19T07:22:42.150Z,99.90
2019-01-19T07:25:10.695Z,99.90
2019-01-19T07:27:39.397Z,99.90
2019-01-19T07:30:11.602Z,99.90
2019-01-19T07:32:40.082Z,99.90
2019-01-19T07:35:08.893Z,99.90
2019-01-19T07:37:37.551Z,99.90
2019-01-19T07:40:09.214Z,99.90
2019-01-19T07:42:39.087Z,99.90
2019-01-19T07:45:09.727Z,99.90
2019-01-19T07:47:38.667Z,99.90
2019-01-19T07:50:10.448Z,99.90
2019-01-19T07:52:39.191Z,99.80
2019-01-19T07:55:13.698Z,99.60
2019-01-19T07:57:42.314Z,99.30
2019-01-19T08:00:21.777Z,98.90
2019-01-19T08:02:50.722Z,98.90
2019-01-19T08:05:19.403Z,98.30
2019-01-19T08:07:47.909Z,98.30
2019-01-19T08:10:18.143Z,98.00
2019-01-19T08:12:46.785Z,97.90
2019-01-19T08:15:17.648Z,97.30
2019-01-19T08:17:46.205Z,97.10
2019-01-19T08:20:15.408Z,97.00
2019-01-19T08:22:44.093Z,96.50
2019-01-19T08:25:13.399Z,96.20
2019-01-19T08:27:41.969Z,96.20
2019-01-19T08:30:16.561Z,95.60
2019-01-19T08:32:45.123Z,95.40
2019-01-19T08:35:15.268Z,95.30
2019-01-19T08:37:44.286Z,95.50
2019-01-19T08:40:16.684Z,95.90
2019-01-19T08:42:46.400Z,95.70
2019-01-19T08:45:15.951Z,95.70
2019-01-19T08:47:44.569Z,94.60
2019-01-19T08:50:13.197Z,94.90
2019-01-19T08:52:41.849Z,94.30
2019-01-19T08:55:10.729Z,94.00
2019-01-19T08:57:39.212Z,93.50
2019-01-19T09:00:16.902Z,93.30
2019-01-19T09:02:45.501Z,93.50
2019-01-19T09:05:14.111Z,93.90
2019-01-19T09:07:42.913Z,93.50
2019-01-19T09:10:16.408Z,93.50
2019-01-19T09:12:45.405Z,93.20
2019-01-19T09:15:18.958Z,93.30
2019-01-19T09:17:47.543Z,94.00
2019-01-19T09:20:17.718Z,93.90
2019-01-19T09:22:47.955Z,93.60
2019-01-19T09:25:17.304Z,92.80
2019-01-19T09:27:45.864Z,92.50
2019-01-19T09:30:24.558Z,92.10
2019-01-19T09:32:53.533Z,91.70
2019-01-19T09:35:22.272Z,91.60
2019-01-19T09:37:50.877Z,91.40
2019-01-19T09:40:19.385Z,89.40
2019-01-19T09:42:47.890Z,88.50
2019-01-19T09:45:17.893Z,89.90
2019-01-19T09:47:46.622Z,90.20
2019-01-19T09:50:16.311Z,89.00
2019-01-19T09:52:44.928Z,89.10
2019-01-19T09:55:13.489Z,88.10
2019-01-19T09:57:42.105Z,86.20
2019-01-19T10:00:14.078Z,86.40
2019-01-19T10:02:42.583Z,83.30
2019-01-19T10:05:14.393Z,83.00
2019-01-19T10:07:48.421Z,83.70
2019-01-19T10:10:13.816Z,84.20
2019-01-19T10:12:42.298Z,81.90
2019-01-19T10:15:14.026Z,81.40
2019-01-19T10:17:42.559Z,82.40
2019-01-19T10:20:30.629Z,82.20
2019-01-19T10:22:59.147Z,79.70
2019-01-19T10:25:27.631Z,78.50
2019-01-19T10:27:56.233Z,79.80
2019-01-19T10:30:29.822Z,71.10
2019-01-19T10:32:58.422Z,69.20
2019-01-19T10:35:26.958Z,57.10
2019-01-19T10:37:56.698Z,53.40
2019-01-19T10:40:25.400Z,51.60
2019-01-19T10:42:54.282Z,50.40
2019-01-19T10:45:24.851Z,51.50
2019-01-19T10:47:53.386Z,49.60
2019-01-19T10:50:22.307Z,50.40
2019-01-19T10:52:50.792Z,47.80
2019-01-19T10:55:20.943Z,44.70
2019-01-19T10:57:49.871Z,39.60
2019-01-19T11:00:26.955Z,35.30
2019-01-19T11:02:57.995Z,33.20
2019-01-19T11:05:27.734Z,31.30
2019-01-19T11:08:03.187Z,32.10
2019-01-19T11:10:31.296Z,31.90
2019-01-19T11:12:59.942Z,31.90
2019-01-19T11:15:28.598Z,33.10
2019-01-19T11:17:57.261Z,33.30
2019-01-19T11:20:28.160Z,33.20
2019-01-19T11:22:56.943Z,34.30
2019-01-19T11:25:25.507Z,35.50
2019-01-19T11:27:54.190Z,37.10
2019-01-19T11:30:28.049Z,38.40
2019-01-19T11:32:56.572Z,39.80
2019-01-19T11:35:25.016Z,39.30
2019-01-19T11:37:53.520Z,37.60
2019-01-19T11:40:25.380Z,35.30
2019-01-19T11:42:54.109Z,34.50
2019-01-19T11:45:23.361Z,33.80
2019-01-19T11:47:51.985Z,32.10
2019-01-19T11:50:20.460Z,31.90
2019-01-19T11:52:49.175Z,33.20
2019-01-19T11:55:19.442Z,33.60
2019-01-19T11:57:49.773Z,34.20
2019-01-19T12:00:23.621Z,34.20
2019-01-19T12:02:52.024Z,35.50
2019-01-19T12:05:20.691Z,37.20
2019-01-19T12:07:49.209Z,35.90
2019-01-19T12:10:20.310Z,36.60
2019-01-19T12:12:48.886Z,35.60
2019-01-19T12:15:17.554Z,36.20
2019-01-19T12:17:46.014Z,35.40
2019-01-19T12:20:20.559Z,35.30
2019-01-19T12:22:49.482Z,37.80
2019-01-19T12:25:20.658Z,37.20
2019-01-19T12:27:49.264Z,38.80
2019-01-19T12:30:26.757Z,40.80
2019-01-19T12:32:55.321Z,40.40
2019-01-19T12:35:23.891Z,42.30
2019-01-19T12:37:52.473Z,42.70
2019-01-19T12:40:25.891Z,43.50
2019-01-19T12:42:56.943Z,44.70
2019-01-19T12:45:31.234Z,43.90
2019-01-19T12:47:59.686Z,44.40
2019-01-19T12:50:28.448Z,46.60
2019-01-19T12:52:57.150Z,46.60
2019-01-19T12:55:25.687Z,47.00
2019-01-19T12:57:54.209Z,46.90
2019-01-19T13:00:25.496Z,47.80
2019-01-19T13:02:54.923Z,46.40
2019-01-19T13:05:41.669Z,49.10
2019-01-19T13:08:16.536Z,45.50
2019-01-19T13:11:03.457Z,44.70
2019-01-19T13:13:32.573Z,44.00
2019-01-19T13:16:23.996Z,41.40
2019-01-19T13:19:07.557Z,41.20
2019-01-19T13:22:13.224Z,39.50
2019-01-19T13:25:03.052Z,36.60
2019-01-19T13:28:06.553Z,35.10
2019-01-19T13:30:50.198Z,35.70
2019-01-19T13:33:54.736Z,35.00
2019-01-19T13:36:38.536Z,32.90
2019-01-19T13:39:13.159Z,33.90
2019-01-19T13:42:01.100Z,33.80
2019-01-19T13:44:50.749Z,34.30
2019-01-19T13:47:25.004Z,34.10
2019-01-19T13:50:08.564Z,34.20
2019-01-19T13:52:43.256Z,34.10
2019-01-19T13:55:21.058Z,33.90
2019-01-19T13:57:58.802Z,34.30
2019-01-19T14:00:33.702Z,36.00
2019-01-19T14:03:05.533Z,38.90
2019-01-19T14:05:49.024Z,41.70
2019-01-19T14:08:23.902Z,44.40
2019-01-19T14:11:04.901Z,47.50
2019-01-19T14:14:02.250Z,50.00
2019-01-19T14:24:40.788Z,57.50
2019-01-19T14:27:15.420Z,59.30
2019-01-19T14:29:55.835Z,61.50
2019-01-19T14:32:51.409Z,64.90
2019-01-19T14:35:26.288Z,68.30
2019-01-19T14:38:15.783Z,70.70
2019-01-19T14:41:07.368Z,73.80
2019-01-19T14:43:42.163Z,76.20
2019-01-19T14:46:34.568Z,77.90
2019-01-19T14:49:25.723Z,79.10
2019-01-19T14:52:06.724Z,82.30
2019-01-19T14:54:41.463Z,82.90
2019-01-19T14:57:32.499Z,85.60
2019-01-19T15:00:30.257Z,87.00
2019-01-19T15:03:20.289Z,89.20
2019-01-19T15:06:11.968Z,89.70
2019-01-19T15:08:43.887Z,90.20
2019-01-19T15:11:18.436Z,90.70
2019-01-19T15:13:52.836Z,91.30
2019-01-19T15:16:33.513Z,91.80
2019-01-19T15:19:32.670Z,92.40
2019-01-19T15:22:07.822Z,92.80
2019-01-19T15:24:39.698Z,93.10
2019-01-19T15:27:31.155Z,93.70
2019-01-19T15:30:12.122Z,94.20
2019-01-19T15:32:52.508Z,94.40
2019-01-19T15:35:39.409Z,94.90
2019-01-19T15:38:29.598Z,95.00
2019-01-19T15:41:01.454Z,95.30
2019-01-19T15:43:51.047Z,95.60
2019-01-19T15:46:38.575Z,96.00
2019-01-19T15:49:29.931Z,96.20
2019-01-19T15:52:07.612Z,96.50
2019-01-19T15:54:57.593Z,96.90
2019-01-19T15:57:41.446Z,96.90
2019-01-19T16:00:28.026Z,97.10
2019-01-19T16:03:14.723Z,97.40
2019-01-19T16:06:04.885Z,97.40
2019-01-19T16:08:51.790Z,97.70
2019-01-19T16:11:26.776Z,97.90
2019-01-19T16:13:58.706Z,98.00
2019-01-19T16:16:39.754Z,98.10
2019-01-19T16:19:20.490Z,98.40
2019-01-19T16:21:54.976Z,98.40
2019-01-19T16:24:26.877Z,98.40
2019-01-19T16:27:04.282Z,98.50
2019-01-19T16:29:58.739Z,98.70
2019-01-19T16:32:39.296Z,98.80
2019-01-19T16:35:11.181Z,99.30
2019-01-19T16:37:52.195Z,99.00
2019-01-19T16:40:26.748Z,99.40
2019-01-19T16:43:09.941Z,99.40
2019-01-19T16:46:04.306Z,99.20
2019-01-19T16:48:54.174Z,99.30
2019-01-19T16:51:28.862Z,99.40
2019-01-19T16:54:12.628Z,99.40
2019-01-19T16:56:50.091Z,99.40
2019-01-19T16:59:27.685Z,99.40
2019-01-19T17:02:08.302Z,99.40
2019-01-19T17:04:55.102Z,99.40
2019-01-19T17:07:29.885Z,99.50
2019-01-19T17:10:01.677Z,99.60
2019-01-19T17:12:45.267Z,99.50
2019-01-19T17:15:20.074Z,99.60
2019-01-19T17:18:06.936Z,99.60
2019-01-19T17:20:50.724Z,99.70
2019-01-19T17:23:34.002Z,99.80
2019-01-19T17:26:05.739Z,99.90
2019-01-19T17:28:40.384Z,99.90
2019-01-19T17:31:14.877Z,99.90
2019-01-19T17:33:55.757Z,99.90
2019-01-19T17:36:27.551Z,99.90
2019-01-19T17:39:09.697Z,99.90
2019-01-19T17:42:08.193Z,99.90
2019-01-19T17:44:55.612Z,99.90
2019-01-19T17:47:48.770Z,99.90
2019-01-19T17:50:37.229Z,99.90
2019-01-19T17:53:12.047Z,99.90
2019-01-19T17:55:47.018Z,99.90
2019-01-19T17:58:34.257Z,99.90
2019-01-19T18:01:06.335Z,99.90
2019-01-19T18:03:40.943Z,99.90
2019-01-19T18:06:31.007Z,99.90
2019-01-19T18:09:08.847Z,99.90
2019-01-19T18:11:55.909Z,99.90
2019-01-19T18:14:33.938Z,99.90
2019-01-19T18:17:20.762Z,99.90
2019-01-19T18:20:10.472Z,99.90
2019-01-19T18:22:54.423Z,99.90
2019-01-19T18:25:26.250Z,99.90
2019-01-19T18:28:10.524Z,99.90
2019-01-19T18:31:06.823Z,99.90
2019-01-19T18:33:50.904Z,99.90
2019-01-19T18:36:40.309Z,99.90
2019-01-19T18:39:12.411Z,99.90
2019-01-19T18:41:47.116Z,99.90
2019-01-19T18:44:41.176Z,99.90
2019-01-19T18:47:32.355Z,99.90
2019-01-19T18:50:13.253Z,99.90
2019-01-19T18:52:48.183Z,99.90
2019-01-19T18:55:22.778Z,99.90
2019-01-19T18:57:54.677Z,99.90
2019-01-19T19:00:41.789Z,99.90
2019-01-19T19:03:25.694Z,99.90
2019-01-19T19:06:30.836Z,99.90
2019-01-19T19:09:20.807Z,99.90
2019-01-19T19:11:55.725Z,99.90
2019-01-19T19:14:30.261Z,99.90
2019-01-19T19:17:07.856Z,99.90
2019-01-19T19:19:45.355Z,99.90
2019-01-19T19:22:26.253Z,99.90
2019-01-19T19:25:19.514Z,99.90
2019-01-19T19:28:03.493Z,99.90
2019-01-19T19:30:53.232Z,99.90
2019-01-19T19:33:36.934Z,99.90
2019-01-19T19:36:28.337Z,99.90
2019-01-19T19:39:24.308Z,99.90
2019-01-19T19:42:08.135Z,99.90
2019-01-19T19:45:11.609Z,99.90
2019-01-19T19:48:13.695Z,99.90
2019-01-19T19:50:45.496Z,99.90
2019-01-19T19:53:13.933Z,99.90
2019-01-19T19:55:41.599Z,99.90
2019-01-19T19:58:10.150Z,99.90
2019-01-19T20:00:38.779Z,99.90
2019-01-19T20:03:07.426Z,99.90
2019-01-19T20:05:36.126Z,99.90
2019-01-19T20:08:04.574Z,99.90
2019-01-19T20:10:33.074Z,99.90
2019-01-19T20:13:01.631Z,99.90
2019-01-19T20:15:30.156Z,99.90
2019-01-19T20:17:58.653Z,99.90
2019-01-19T20:20:27.495Z,99.90
2019-01-19T20:22:56.192Z,99.90
2019-01-19T20:25:25.208Z,99.90
2019-01-19T20:27:54.011Z,99.90
2019-01-19T20:30:22.672Z,99.90
2019-01-19T20:32:51.959Z,99.90
2019-01-19T20:35:21.056Z,99.90
2019-01-19T20:37:49.683Z,99.90
2019-01-19T20:40:24.271Z,99.90
2019-01-19T20:42:48.732Z,99.90
2019-01-19T20:45:17.254Z,99.90
2019-01-19T20:47:45.804Z,99.90
2019-01-19T20:50:16.227Z,99.90
2019-01-19T20:52:44.735Z,99.90
2019-01-19T20:55:13.329Z,99.90
2019-01-19T20:57:42.053Z,99.90
2019-01-19T21:00:18.920Z,99.90
2019-01-19T21:02:47.715Z,99.90
2019-01-19T21:05:16.333Z,99.90
2019-01-19T21:07:44.924Z,99.90
2019-01-19T21:10:13.496Z,99.90
2019-01-19T21:12:42.581Z,99.90
2019-01-19T21:15:15.384Z,99.90
2019-01-19T21:17:44.362Z,99.90
2019-01-19T21:20:15.023Z,99.90
2019-01-19T21:22:43.667Z,99.90
2019-01-19T21:25:14.034Z,99.90
2019-01-19T21:27:42.847Z,99.90
2019-01-19T21:30:14.718Z,99.90
2019-01-19T21:32:43.793Z,99.90
2019-01-19T21:35:12.481Z,99.90
2019-01-19T21:37:41.154Z,99.90
2019-01-19T21:40:12.396Z,99.90
2019-01-19T21:42:41.138Z,99.90
2019-01-19T21:45:18.502Z,99.90
2019-01-19T21:47:47.214Z,99.90
2019-01-19T21:50:16.186Z,99.90
2019-01-19T21:52:45.062Z,99.90
2019-01-19T21:55:13.795Z,99.90
2019-01-19T21:57:43.816Z,99.90
2019-01-19T22:00:16.300Z,99.90
2019-01-19T22:02:45.310Z,99.90
2019-01-19T22:05:14.697Z,99.90
2019-01-19T22:07:43.445Z,99.90
2019-01-19T22:10:20.746Z,99.90
2019-01-19T22:12:49.567Z,99.90
2019-01-19T22:15:19.313Z,99.90
2019-01-19T22:17:48.298Z,99.90
2019-01-19T22:20:19.278Z,99.90
2019-01-19T22:22:48.243Z,99.90
2019-01-19T22:25:16.995Z,99.90
2019-01-19T22:27:47.342Z,99.90
2019-01-19T22:30:21.091Z,99.90
2019-01-19T22:32:52.260Z,99.90
2019-01-19T22:35:21.686Z,99.90
2019-01-19T22:37:50.371Z,99.90
2019-01-19T22:40:19.091Z,99.90
2019-01-19T22:42:48.582Z,99.90
2019-01-19T22:45:17.593Z,99.90
2019-01-19T22:47:46.195Z,99.90
2019-01-19T22:50:18.641Z,99.90
2019-01-19T22:52:47.488Z,99.90
2019-01-19T22:55:16.432Z,99.90
2019-01-19T22:57:45.315Z,99.90
2019-01-19T23:00:24.892Z,99.90
2019-01-19T23:02:53.593Z,99.90
2019-01-19T23:05:22.129Z,99.90
2019-01-19T23:07:50.765Z,99.90
2019-01-19T23:10:19.400Z,99.90
2019-01-19T23:12:47.960Z,99.90
2019-01-19T23:15:16.619Z,99.90
2019-01-19T23:17:45.208Z,99.90
2019-01-19T23:20:13.889Z,99.90
2019-01-19T23:22:42.708Z,99.90
2019-01-19T23:25:11.266Z,99.90
2019-01-19T23:27:39.912Z,99.90
2019-01-19T23:30:12.858Z,99.90
2019-01-19T23:32:41.496Z,99.90
2019-01-19T23:35:10.030Z,99.90
2019-01-19T23:37:38.539Z,99.90
2019-01-19T23:40:12.415Z,99.90
2019-01-19T23:42:47.191Z,99.90
2019-01-19T23:45:11.625Z,99.90
2019-01-19T23:47:40.105Z,99.90
2019-01-19T23:50:10.030Z,99.90
2019-01-19T23:52:38.588Z,99.90
2019-01-19T23:55:07.257Z,99.90
2019-01-19T23:57:35.894Z,99.90
